»·PEaware :: ASA103 KGJT-KSLC

ASA103 :: KGJT-KSLC

FLIGHT INFORMATION

Flight Status: Arrived
Operator:
Alaska Airlines
More flights by this operator :: More flights under this callsign
Pilot: Andrew C. (28419)
Aircraft: BOEING 737-800
(B738)
More flights by this aircraft type
Origin: KGJT Grand Junction Regl
United States
Destination: KSLC Salt Lake City Intl
United States
More flights between these airports :: More routes between these airports
Route: + HELPR LEEHY5
File this flight plan on PilotEdge
Remarks: Happy Birthday PE!
Altitude:
(Current/Filed)
36,000ft
Speed:
(Current/Filed)
471kts
Departed: 11-Oct-20 02:34 PM
Arrived: 11-Oct-20 03:24 PM
Distance/Time
Traveled:
188nm/0:50
Distance/Time
To Go:
Arrived

Flight Plot

Page will automatically refresh every two minutes.

Flight plan parsing failed; only flown route is shown


Map Options




Map Legend


Flown Route
Filed Route
Departure Airport
Arrival Airport
Navaid (VOR, NDB)
Fix

Horizontal Profiles

Position Reports

Time Latitude Longitude Heading Altitude Ground
Speed
11-Oct-20 13:49 39.122261 -108.526859 215 4813ft 0kts
11-Oct-20 13:50 39.122261 -108.526859 215 4813ft 0kts
11-Oct-20 13:51 39.122261 -108.526859 215 4813ft 0kts
11-Oct-20 13:52 39.122261 -108.526859 215 4813ft 0kts
11-Oct-20 13:53 39.122261 -108.526859 215 4813ft 0kts
11-Oct-20 13:54 39.122261 -108.526859 215 4813ft 0kts
11-Oct-20 13:55 39.122261 -108.526859 215 4813ft 0kts
11-Oct-20 13:56 39.122261 -108.526859 215 4813ft 0kts
11-Oct-20 13:57 39.122261 -108.526859 215 4813ft 0kts
11-Oct-20 13:58 39.122261 -108.526859 215 4813ft 0kts
11-Oct-20 13:59 39.122261 -108.526859 215 4813ft 0kts
11-Oct-20 14:00 39.122261 -108.526859 215 4813ft 0kts
11-Oct-20 14:01 39.122261 -108.526859 215 4812ft 0kts
11-Oct-20 14:02 39.122261 -108.526859 215 4812ft 0kts
11-Oct-20 14:03 39.122261 -108.526859 215 4812ft 0kts
11-Oct-20 14:04 39.122261 -108.526859 215 4812ft 0kts
11-Oct-20 14:05 39.122261 -108.526859 215 4812ft 0kts
11-Oct-20 14:06 39.122261 -108.526859 215 4812ft 0kts
11-Oct-20 14:07 39.122261 -108.526859 215 4812ft 0kts
11-Oct-20 14:08 39.122261 -108.526859 215 4812ft 0kts
11-Oct-20 14:09 39.122261 -108.526859 215 4812ft 0kts
11-Oct-20 14:10 39.122261 -108.526859 215 4812ft 0kts
11-Oct-20 14:11 39.122261 -108.526859 215 4812ft 0kts
11-Oct-20 14:12 39.122261 -108.526859 215 4812ft 0kts
11-Oct-20 14:13 39.122261 -108.526859 215 4812ft 0kts
11-Oct-20 14:14 39.122261 -108.526859 215 4812ft 0kts
11-Oct-20 14:15 39.122261 -108.526859 215 4812ft 0kts
11-Oct-20 14:16 39.122261 -108.526859 215 4812ft 0kts
11-Oct-20 14:17 39.122261 -108.526859 215 4812ft 0kts
11-Oct-20 14:18 39.122261 -108.526859 215 4812ft 0kts
11-Oct-20 14:19 39.122261 -108.526859 215 4812ft 0kts
11-Oct-20 14:20 39.122261 -108.526859 215 4812ft 0kts
11-Oct-20 14:21 39.122261 -108.526859 215 4812ft 0kts
11-Oct-20 14:22 39.122306 -108.526818 215 4812ft 2kts
11-Oct-20 14:23 39.122802 -108.526604 162 4812ft 2kts
11-Oct-20 14:24 39.123051 -108.526855 124 4812ft 0kts
11-Oct-20 14:25 39.123051 -108.526854 124 4812ft 0kts
11-Oct-20 14:26 39.122897 -108.526520 113 4812ft 3kts
11-Oct-20 14:27 39.122732 -108.524455 126 4812ft 11kts
11-Oct-20 14:28 39.120811 -108.520982 124 4812ft 1kts
11-Oct-20 14:29 39.120798 -108.520957 124 4812ft 0kts
11-Oct-20 14:30 39.120334 -108.520087 125 4812ft 10kts
11-Oct-20 14:31 39.118407 -108.516611 125 4812ft 0kts
11-Oct-20 14:32 39.118172 -108.514902 56 4812ft 8kts
11-Oct-20 14:33 39.128332 -108.532549 307 5134ft 152kts
11-Oct-20 14:34 39.155471 -108.591455 301 7111ft 241kts
11-Oct-20 14:35 39.132466 -108.674883 232 10122ft 281kts
11-Oct-20 14:36 39.090030 -108.768426 257 12340ft 328kts
11-Oct-20 14:37 39.053901 -108.876908 239 14994ft 348kts
11-Oct-20 14:38 39.009004 -108.983973 270 17293ft 340kts
11-Oct-20 14:39 39.046398 -109.095334 299 20005ft 350kts
11-Oct-20 14:40 39.098916 -109.202007 299 22431ft 357kts
11-Oct-20 14:41 39.151866 -109.310282 300 24921ft 355kts
11-Oct-20 14:42 39.204390 -109.417996 302 26673ft 365kts
11-Oct-20 14:43 39.258478 -109.528841 304 28616ft 365kts
11-Oct-20 14:44 39.312296 -109.639556 305 30624ft 359kts
11-Oct-20 14:45 39.364664 -109.747233 305 32565ft 351kts
11-Oct-20 14:46 39.415876 -109.852710 305 34333ft 343kts
11-Oct-20 14:47 39.466244 -109.956349 305 35807ft 339kts
11-Oct-20 14:48 39.517015 -110.060832 305 36179ft 346kts
11-Oct-20 14:49 39.567635 -110.165155 305 36196ft 342kts
11-Oct-20 14:50 39.618330 -110.269671 305 36202ft 343kts
11-Oct-20 14:51 39.669098 -110.374437 305 36208ft 343kts
11-Oct-20 14:52 39.720001 -110.479555 305 36210ft 343kts
11-Oct-20 14:53 39.768025 -110.586928 301 36210ft 346kts
11-Oct-20 14:54 39.820488 -110.691104 316 35757ft 347kts
11-Oct-20 14:55 39.905968 -110.747774 339 34755ft 356kts
11-Oct-20 14:56 40.002987 -110.776303 338 33757ft 358kts
11-Oct-20 14:57 40.099984 -110.797035 357 32749ft 376kts
11-Oct-20 14:58 40.197321 -110.723201 35 31757ft 448kts
11-Oct-20 14:59 40.228389 -110.553285 89 30758ft 539kts
11-Oct-20 15:00 40.164823 -110.378559 141 29744ft 556kts
11-Oct-20 15:01 40.027161 -110.335123 202 28756ft 488kts
11-Oct-20 15:02 39.928239 -110.423565 252 27729ft 399kts
11-Oct-20 15:03 39.927119 -110.550831 293 24882ft 354kts
11-Oct-20 15:04 39.954299 -110.676210 286 24164ft 376kts
11-Oct-20 15:05 39.979990 -110.804082 286 24166ft 375kts
11-Oct-20 15:06 40.006922 -110.937894 287 24169ft 376kts
11-Oct-20 15:07 40.033392 -111.069301 287 24190ft 373kts
11-Oct-20 15:09 40.059500 -111.198762 287 23733ft 349kts
11-Oct-20 15:10 40.083446 -111.317345 287 21444ft 335kts
11-Oct-20 15:11 40.107136 -111.434153 287 18755ft 330kts
11-Oct-20 15:12 40.130854 -111.548294 291 16244ft 319kts
11-Oct-20 15:13 40.168399 -111.651341 296 15987ft 316kts
11-Oct-20 15:14 40.222178 -111.741303 312 15722ft 310kts
11-Oct-20 15:15 40.282962 -111.822004 314 13251ft 308kts
11-Oct-20 15:16 40.348196 -111.889893 320 12217ft 306kts
11-Oct-20 15:17 40.415247 -111.931922 346 11058ft 258kts
11-Oct-20 15:18 40.486384 -111.942027 1 10424ft 270kts
11-Oct-20 15:19 40.558897 -111.948177 351 8936ft 249kts
11-Oct-20 15:20 40.621356 -111.955483 351 7429ft 210kts
11-Oct-20 15:21 40.675780 -111.961731 351 6209ft 181kts
11-Oct-20 15:22 40.720743 -111.966935 353 5328ft 146kts
11-Oct-20 15:23 40.761258 -111.971528 353 4512ft 143kts
11-Oct-20 15:24 40.790756 -111.975085 345 4237ft 28kts
11-Oct-20 15:25 40.792073 -111.977272 265 4237ft 12kts
11-Oct-20 15:25 40.791788 -111.981956 264 4237ft 15kts
11-Oct-20 15:27 40.789563 -111.984765 200 4237ft 5kts
11-Oct-20 15:27 40.789332 -111.984878 199 4237ft 0kts
11-Oct-20 15:29 40.789332 -111.984878 199 4237ft 0kts
11-Oct-20 15:29 40.789332 -111.984878 199 4237ft 0kts
11-Oct-20 15:30 40.789332 -111.984878 199 4237ft 0kts
11-Oct-20 15:31 40.789332 -111.984878 199 4237ft 0kts

Navigation Log

Ident Type
Flight plan parsing failed, navigation log unavailable